createdAt,value
2019-04-29T00:01:37.887Z,1.60
2019-04-29T00:04:06.819Z,1.57
2019-04-29T00:06:37.295Z,1.73
2019-04-29T00:09:10.729Z,1.60
2019-04-29T00:11:39.690Z,2.37
2019-04-29T00:14:10.186Z,1.60
2019-04-29T00:16:46.255Z,1.90
2019-04-29T00:19:39.989Z,2.57
2019-04-29T00:22:08.985Z,2.15
2019-04-29T00:24:37.899Z,1.30
2019-04-29T00:27:06.917Z,1.70
2019-04-29T00:29:35.785Z,3.20
2019-04-29T00:32:05.157Z,2.23
2019-04-29T00:34:33.953Z,2.30
2019-04-29T00:37:19.629Z,1.43
2019-04-29T00:40:25.753Z,1.90
2019-04-29T00:43:08.628Z,2.27
2019-04-29T00:45:37.595Z,2.10
2019-04-29T00:48:06.806Z,1.80
2019-04-29T00:50:38.647Z,1.75
2019-04-29T00:53:07.599Z,1.47
2019-04-29T00:55:36.503Z,1.20
2019-04-29T00:58:05.418Z,1.57
2019-04-29T01:00:38.135Z,1.93
2019-04-29T01:03:07.319Z,1.53
2019-04-29T01:05:38.768Z,3.10
2019-04-29T01:08:07.966Z,2.17
2019-04-29T01:10:37.378Z,2.83
2019-04-29T01:13:06.467Z,1.43
2019-04-29T01:15:35.432Z,1.40
2019-04-29T01:18:04.458Z,1.27
2019-04-29T01:20:33.267Z,1.70
2019-04-29T01:23:09.379Z,2.37
2019-04-29T01:25:38.218Z,1.53
2019-04-29T01:28:39.551Z,1.60
2019-04-29T01:31:27.590Z,3.37
2019-04-29T01:34:13.575Z,2.17
2019-04-29T01:36:44.408Z,2.60
2019-04-29T01:39:14.337Z,1.80
2019-04-29T01:41:52.121Z,3.17
2019-04-29T01:44:23.583Z,2.40
2019-04-29T01:46:52.586Z,2.20
2019-04-29T01:49:21.463Z,1.82
2019-04-29T01:51:50.274Z,2.40
2019-04-29T01:54:19.625Z,1.90
2019-04-29T01:56:48.543Z,1.67
2019-04-29T01:59:17.481Z,2.20
2019-04-29T02:01:46.425Z,2.10
2019-04-29T02:04:16.933Z,1.93
2019-04-29T02:06:45.860Z,1.57
2019-04-29T02:09:22.196Z,3.10
2019-04-29T02:11:52.855Z,2.60
2019-04-29T02:14:24.791Z,1.80
2019-04-29T02:16:53.665Z,3.07
2019-04-29T02:19:22.679Z,3.03
2019-04-29T02:22:11.995Z,2.40
2019-04-29T02:24:47.758Z,4.00
2019-04-29T02:27:16.590Z,3.60
2019-04-29T02:29:45.499Z,2.62
2019-04-29T02:32:16.555Z,4.73
2019-04-29T02:34:50.325Z,3.83
2019-04-29T02:37:25.575Z,2.87
2019-04-29T02:40:01.460Z,4.22
2019-04-29T02:42:58.787Z,4.62
2019-04-29T02:45:55.933Z,3.37
2019-04-29T02:48:30.025Z,4.10
2019-04-29T02:50:58.487Z,3.80
2019-04-29T02:53:28.694Z,3.70
2019-04-29T02:55:59.151Z,4.03
2019-04-29T02:58:43.389Z,4.17
2019-04-29T03:01:34.654Z,5.30
2019-04-29T03:04:10.201Z,4.57
2019-04-29T03:06:42.837Z,6.33
2019-04-29T03:09:12.709Z,4.50
2019-04-29T03:11:42.182Z,5.17
2019-04-29T03:14:11.115Z,4.47
2019-04-29T03:16:40.087Z,4.13
2019-04-29T03:19:15.092Z,3.73
2019-04-29T03:21:48.829Z,4.83
2019-04-29T03:24:17.719Z,7.63
2019-04-29T03:26:47.173Z,5.20
2019-04-29T03:29:24.869Z,5.17
2019-04-29T03:31:54.950Z,5.50
2019-04-29T03:34:23.978Z,5.30
2019-04-29T03:36:53.320Z,4.63
2019-04-29T03:39:23.836Z,7.03
2019-04-29T03:41:52.882Z,4.80
2019-04-29T03:44:21.949Z,5.20
2019-04-29T03:46:52.652Z,4.40
2019-04-29T03:49:22.091Z,5.13
2019-04-29T03:51:51.279Z,5.20
2019-04-29T03:54:20.262Z,5.47
2019-04-29T03:56:51.036Z,5.97
2019-04-29T03:59:20.368Z,5.90
2019-04-29T04:02:05.174Z,6.75
2019-04-29T04:05:11.562Z,5.70
2019-04-29T04:07:48.320Z,4.80
2019-04-29T04:10:21.278Z,5.97
2019-04-29T04:13:13.543Z,5.27
2019-04-29T04:15:42.479Z,5.77
2019-04-29T04:18:22.549Z,8.40
2019-04-29T04:20:53.583Z,5.57
2019-04-29T04:23:25.112Z,8.40
2019-04-29T04:26:02.569Z,9.73
2019-04-29T04:28:34.109Z,9.50
2019-04-29T04:31:07.215Z,6.27
2019-04-29T04:33:36.870Z,7.13
2019-04-29T04:36:07.501Z,8.83
2019-04-29T04:38:37.839Z,6.50
2019-04-29T04:41:49.427Z,8.07
2019-04-29T04:44:25.687Z,8.07
2019-04-29T04:46:59.010Z,8.93
2019-04-29T04:49:32.575Z,6.90
2019-04-29T04:52:03.570Z,8.13
2019-04-29T04:54:32.812Z,8.63
2019-04-29T04:57:02.158Z,15.40
2019-04-29T04:59:31.119Z,10.60
2019-04-29T05:02:01.333Z,7.63
2019-04-29T05:04:30.237Z,7.77
2019-04-29T05:06:59.055Z,8.83
2019-04-29T05:09:28.838Z,5.80
2019-04-29T05:11:58.243Z,5.30
2019-04-29T05:14:27.758Z,5.03
2019-04-29T05:17:02.731Z,5.03
2019-04-29T05:31:47.739Z,4.57
2019-04-29T05:34:49.721Z,5.80
2019-04-29T05:37:33.002Z,4.67
2019-04-29T05:40:04.387Z,3.67
2019-04-29T05:42:35.256Z,3.23
2019-04-29T05:45:17.361Z,2.73
2019-04-29T05:47:52.455Z,2.87
2019-04-29T05:50:41.191Z,2.60
2019-04-29T05:53:23.478Z,2.77
2019-04-29T05:55:55.521Z,4.83
2019-04-29T05:58:25.243Z,2.70
2019-04-29T06:01:04.947Z,2.57
2019-04-29T06:03:39.666Z,3.60
2019-04-29T06:06:12.241Z,2.90
2019-04-29T06:08:42.331Z,2.57
2019-04-29T06:11:11.948Z,3.17
2019-04-29T06:13:41.604Z,2.97
2019-04-29T06:16:16.053Z,2.70
2019-04-29T06:18:43.697Z,2.47
2019-04-29T06:21:18.550Z,2.40
2019-04-29T06:23:54.290Z,2.90
2019-04-29T06:26:24.007Z,3.13
2019-04-29T06:28:53.624Z,2.40
2019-04-29T06:31:24.590Z,3.00
2019-04-29T06:33:54.570Z,2.80
2019-04-29T06:36:24.148Z,3.40
2019-04-29T06:38:55.263Z,4.67
2019-04-29T06:41:30.493Z,2.70
2019-04-29T06:44:06.673Z,2.87
2019-04-29T06:46:33.642Z,3.33
2019-04-29T06:49:09.984Z,2.57
2019-04-29T06:51:35.391Z,3.43
2019-04-29T06:54:04.367Z,2.80
2019-04-29T06:56:33.567Z,2.90
2019-04-29T06:59:07.552Z,2.73
2019-04-29T07:01:37.497Z,2.63
2019-04-29T07:04:06.303Z,3.50
2019-04-29T07:06:35.356Z,2.97
2019-04-29T07:09:06.338Z,2.73
2019-04-29T07:11:38.465Z,3.30
2019-04-29T07:14:07.721Z,2.90
2019-04-29T07:16:55.829Z,2.80
2019-04-29T07:19:26.623Z,3.17
2019-04-29T07:21:56.605Z,4.37
2019-04-29T07:24:26.364Z,3.30
2019-04-29T07:26:57.788Z,3.57
2019-04-29T07:29:30.367Z,3.50
2019-04-29T07:31:56.110Z,3.40
2019-04-29T07:34:28.846Z,3.43
2019-04-29T07:36:57.685Z,3.50
2019-04-29T07:39:26.890Z,3.47
2019-04-29T07:41:56.437Z,3.43
2019-04-29T07:44:32.863Z,4.57
2019-04-29T07:47:01.984Z,3.12
2019-04-29T07:49:30.137Z,4.30
2019-04-29T07:52:02.074Z,2.95
2019-04-29T07:54:36.466Z,3.37
2019-04-29T07:57:12.370Z,4.80
2019-04-29T07:59:41.794Z,3.63
2019-04-29T08:02:10.629Z,3.65
2019-04-29T08:04:40.448Z,3.00
2019-04-29T08:07:10.700Z,4.17
2019-04-29T08:09:44.226Z,4.90
2019-04-29T08:12:16.567Z,2.98
2019-04-29T08:14:46.557Z,4.57
2019-04-29T08:17:15.336Z,2.83
2019-04-29T08:19:45.488Z,3.00
2019-04-29T08:22:17.813Z,2.77
2019-04-29T08:24:50.472Z,4.70
2019-04-29T08:27:15.295Z,5.20
2019-04-29T08:29:47.208Z,3.17
2019-04-29T08:32:15.723Z,2.40
2019-04-29T08:34:44.489Z,6.23
2019-04-29T08:37:13.251Z,3.20
2019-04-29T08:39:44.902Z,3.20
2019-04-29T08:42:17.174Z,3.53
2019-04-29T08:45:02.074Z,4.80
2019-04-29T08:47:33.189Z,4.15
2019-04-29T08:50:03.602Z,4.07
2019-04-29T08:52:33.279Z,4.57
2019-04-29T08:55:02.040Z,4.27
2019-04-29T08:57:31.836Z,3.53
2019-04-29T09:00:01.349Z,4.73
2019-04-29T09:02:35.010Z,3.60
2019-04-29T09:05:00.866Z,3.17
2019-04-29T09:07:34.078Z,3.37
2019-04-29T09:10:05.546Z,3.17
2019-04-29T09:12:34.371Z,4.90
2019-04-29T09:15:03.237Z,3.70
2019-04-29T09:17:32.085Z,4.50
2019-04-29T09:20:00.911Z,3.33
2019-04-29T09:22:33.235Z,2.50
2019-04-29T09:25:26.307Z,3.30
2019-04-29T09:27:52.607Z,2.40
2019-04-29T09:30:21.448Z,5.60
2019-04-29T09:32:51.506Z,5.03
2019-04-29T09:35:23.846Z,4.37
2019-04-29T09:37:53.838Z,5.10
2019-04-29T09:40:24.938Z,3.17
2019-04-29T09:43:14.591Z,3.77
2019-04-29T09:45:37.257Z,5.17
2019-04-29T09:48:06.130Z,4.07
2019-04-29T09:50:39.151Z,4.30
2019-04-29T09:53:05.713Z,3.33
2019-04-29T09:55:35.618Z,3.80
2019-04-29T09:58:06.094Z,4.83
2019-04-29T10:00:48.360Z,3.67
2019-04-29T10:03:27.914Z,4.07
2019-04-29T10:06:16.035Z,3.03
2019-04-29T10:08:47.112Z,2.35
2019-04-29T10:11:15.888Z,4.73
2019-04-29T10:13:44.718Z,3.00
2019-04-29T10:16:25.219Z,4.00
2019-04-29T10:19:00.637Z,2.80
2019-04-29T10:21:29.262Z,1.90
2019-04-29T10:23:58.117Z,3.67
2019-04-29T10:26:26.883Z,3.80
2019-04-29T10:29:08.738Z,3.97
2019-04-29T10:31:37.483Z,4.07
2019-04-29T10:34:07.712Z,3.80
2019-04-29T10:36:37.790Z,2.77
2019-04-29T10:39:42.425Z,1.80
2019-04-29T10:42:17.827Z,3.67
2019-04-29T10:45:11.783Z,3.23
2019-04-29T10:47:54.217Z,3.47
2019-04-29T10:50:28.003Z,3.17
2019-04-29T10:52:59.184Z,2.53
2019-04-29T10:55:30.086Z,3.22
2019-04-29T10:58:00.065Z,2.93
2019-04-29T11:01:07.734Z,2.67
2019-04-29T11:03:38.423Z,3.60
2019-04-29T11:06:08.506Z,4.40
2019-04-29T11:08:50.279Z,2.27
2019-04-29T11:11:23.293Z,2.87
2019-04-29T11:13:51.878Z,2.90
2019-04-29T11:16:22.827Z,4.00
2019-04-29T11:18:55.090Z,2.63
2019-04-29T11:21:24.995Z,2.43
2019-04-29T11:24:11.504Z,3.07
2019-04-29T11:27:11.168Z,2.83
2019-04-29T11:29:29.936Z,2.47
2019-04-29T11:32:00.406Z,4.30
2019-04-29T11:34:53.704Z,2.97
2019-04-29T11:37:23.986Z,2.27
2019-04-29T11:39:53.331Z,3.25
2019-04-29T11:42:22.723Z,2.70
2019-04-29T11:45:02.157Z,3.62
2019-04-29T11:47:30.711Z,3.30
2019-04-29T11:50:18.775Z,2.47
2019-04-29T11:52:47.670Z,3.47
2019-04-29T11:55:18.515Z,2.37
2019-04-29T11:57:53.224Z,2.03
2019-04-29T12:00:48.110Z,2.30
2019-04-29T12:03:19.867Z,3.75
2019-04-29T12:05:52.891Z,5.90
2019-04-29T12:08:22.887Z,2.10
2019-04-29T12:11:06.118Z,2.07
2019-04-29T12:13:33.243Z,3.83
2019-04-29T12:16:12.927Z,4.10
2019-04-29T12:18:53.342Z,4.27
2019-04-29T12:21:28.319Z,3.30
2019-04-29T12:23:59.454Z,2.33
2019-04-29T12:26:35.493Z,2.80
2019-04-29T12:29:02.117Z,3.73
2019-04-29T12:31:44.805Z,2.95
2019-04-29T12:34:30.266Z,3.43
2019-04-29T12:36:59.568Z,3.53
2019-04-29T12:40:05.512Z,3.73
2019-04-29T12:43:02.981Z,4.77
2019-04-29T12:45:39.858Z,2.33
2019-04-29T12:48:24.315Z,3.97
2019-04-29T12:50:52.287Z,3.13
2019-04-29T12:53:19.810Z,4.93
2019-04-29T12:55:53.549Z,2.13
2019-04-29T12:58:24.165Z,4.90
2019-04-29T13:01:00.113Z,5.27
2019-04-29T13:03:49.382Z,2.60
2019-04-29T13:06:24.342Z,2.57
2019-04-29T13:09:01.399Z,3.22
2019-04-29T13:11:45.364Z,2.90
2019-04-29T13:14:05.190Z,3.97
2019-04-29T13:16:59.932Z,2.73
2019-04-29T13:19:36.354Z,3.03
2019-04-29T13:22:10.581Z,3.40
2019-04-29T13:24:42.529Z,5.37
2019-04-29T13:27:16.322Z,4.03
2019-04-29T13:29:43.850Z,2.50
2019-04-29T13:32:13.367Z,3.73
2019-04-29T13:34:45.099Z,4.43
2019-04-29T13:37:19.024Z,5.03
2019-04-29T13:39:44.573Z,4.87
2019-04-29T13:42:15.787Z,2.20
2019-04-29T13:45:04.698Z,2.23
2019-04-29T13:47:41.793Z,3.13
2019-04-29T13:50:23.604Z,2.70
2019-04-29T13:52:48.809Z,4.97
2019-04-29T13:55:46.137Z,3.80
2019-04-29T13:57:50.799Z,3.77
2019-04-29T14:00:38.507Z,3.60
2019-04-29T14:03:11.645Z,5.10
2019-04-29T14:05:41.789Z,4.37
2019-04-29T14:08:10.730Z,3.43
2019-04-29T14:10:42.523Z,3.03
2019-04-29T14:13:16.328Z,3.47
2019-04-29T14:15:42.170Z,3.43
2019-04-29T14:18:16.232Z,7.60
2019-04-29T14:20:51.810Z,3.47
2019-04-29T14:23:20.830Z,4.23
2019-04-29T14:25:49.603Z,4.73
2019-04-29T14:28:18.451Z,5.57
2019-04-29T14:30:47.986Z,11.63
2019-04-29T14:33:24.395Z,4.40
2019-04-29T14:36:06.317Z,2.97
2019-04-29T14:38:35.932Z,6.90
2019-04-29T14:41:05.840Z,3.87
2019-04-29T14:43:44.835Z,4.17
2019-04-29T14:46:36.387Z,4.37
2019-04-29T14:49:15.654Z,6.93
2019-04-29T14:51:44.494Z,3.83
2019-04-29T14:54:13.286Z,4.43
2019-04-29T14:56:42.080Z,4.00
2019-04-29T14:59:10.891Z,3.30
2019-04-29T15:01:52.862Z,9.83
2019-04-29T15:04:24.039Z,5.40
2019-04-29T15:06:52.908Z,5.03
2019-04-29T15:09:23.042Z,3.60
2019-04-29T15:12:11.299Z,6.12
2019-04-29T15:14:59.264Z,4.43
2019-04-29T15:17:51.142Z,7.43
2019-04-29T15:20:37.867Z,4.60
2019-04-29T15:23:08.025Z,5.33
2019-04-29T15:25:39.690Z,4.30
2019-04-29T15:28:08.469Z,5.70
2019-04-29T15:30:38.687Z,5.43
2019-04-29T15:33:10.563Z,3.27
2019-04-29T15:35:39.406Z,4.10
2019-04-29T15:38:11.356Z,3.67
2019-04-29T15:40:43.001Z,6.77
2019-04-29T15:43:11.325Z,5.00
2019-04-29T15:45:40.695Z,4.87
2019-04-29T15:48:09.704Z,10.65
2019-04-29T15:50:39.053Z,4.90
2019-04-29T15:53:08.262Z,4.70
2019-04-29T15:55:41.177Z,4.37
2019-04-29T15:58:10.431Z,5.47
2019-04-29T16:00:40.607Z,4.93
2019-04-29T16:03:12.611Z,5.87
2019-04-29T16:06:21.131Z,7.30
2019-04-29T16:08:58.184Z,6.63
2019-04-29T16:11:41.774Z,8.53
2019-04-29T16:14:21.659Z,5.80
2019-04-29T16:16:50.571Z,5.27
2019-04-29T16:19:19.463Z,4.37
2019-04-29T16:21:49.854Z,4.15
2019-04-29T16:24:26.414Z,5.30
2019-04-29T16:26:53.463Z,100.80
2019-04-29T16:29:20.978Z,9.47
2019-04-29T16:31:55.032Z,5.10
2019-04-29T16:34:20.359Z,8.60
2019-04-29T16:36:52.557Z,4.37
2019-04-29T16:39:25.346Z,5.23
2019-04-29T16:42:19.221Z,4.72
2019-04-29T16:44:48.402Z,4.87
2019-04-29T16:47:19.315Z,4.20
2019-04-29T16:49:48.410Z,4.85
2019-04-29T16:52:17.369Z,5.67
2019-04-29T16:54:46.567Z,4.30
2019-04-29T16:57:15.751Z,6.20
2019-04-29T16:59:44.890Z,5.97
2019-04-29T17:02:19.489Z,5.40
2019-04-29T17:04:46.298Z,7.30
2019-04-29T17:07:18.324Z,5.80
2019-04-29T17:10:01.429Z,7.90
2019-04-29T17:12:37.964Z,6.67
2019-04-29T17:15:24.251Z,6.20
2019-04-29T17:17:41.458Z,6.43
2019-04-29T17:20:11.198Z,7.65
2019-04-29T17:22:43.425Z,7.53
2019-04-29T17:25:11.842Z,9.50
2019-04-29T17:27:58.741Z,9.30
2019-04-29T17:30:51.998Z,5.83
2019-04-29T17:33:49.484Z,7.37
2019-04-29T17:36:14.344Z,6.70
2019-04-29T17:38:43.264Z,6.53
2019-04-29T17:41:14.147Z,6.07
2019-04-29T17:44:05.141Z,6.67
2019-04-29T17:47:00.030Z,7.07
2019-04-29T17:49:52.110Z,6.17
2019-04-29T17:52:26.457Z,10.23
2019-04-29T17:54:59.506Z,6.30
2019-04-29T17:57:38.209Z,7.70
2019-04-29T18:00:18.940Z,9.78
2019-04-29T18:03:06.165Z,6.10
2019-04-29T18:05:54.981Z,6.13
2019-04-29T18:08:41.780Z,6.33
2019-04-29T18:11:11.282Z,8.63
2019-04-29T18:13:45.815Z,6.70
2019-04-29T18:16:25.691Z,6.27
2019-04-29T18:19:05.736Z,6.87
2019-04-29T18:21:56.061Z,7.77
2019-04-29T18:24:52.867Z,6.40
2019-04-29T18:27:26.502Z,7.20
2019-04-29T18:30:00.626Z,6.85
2019-04-29T18:32:35.600Z,6.37
2019-04-29T18:34:59.832Z,6.67
2019-04-29T18:37:30.370Z,6.05
2019-04-29T18:40:02.339Z,9.43
2019-04-29T18:42:32.231Z,29.82
2019-04-29T18:45:01.055Z,12.73
2019-04-29T18:47:38.642Z,8.93
2019-04-29T18:50:08.165Z,20.50
2019-04-29T18:52:39.351Z,7.28
2019-04-29T18:55:08.543Z,9.60
2019-04-29T18:57:40.386Z,10.13
2019-04-29T19:00:12.041Z,9.60
2019-04-29T19:02:46.018Z,8.40
2019-04-29T19:05:18.898Z,7.23
2019-04-29T19:07:55.271Z,8.27
2019-04-29T19:10:19.040Z,7.20
2019-04-29T19:12:58.157Z,8.47
2019-04-29T19:15:21.471Z,7.90
2019-04-29T19:17:59.103Z,7.70
2019-04-29T19:20:21.278Z,7.33
2019-04-29T19:23:05.027Z,7.30
2019-04-29T19:25:26.151Z,6.70
2019-04-29T19:27:55.622Z,7.30
2019-04-29T19:30:29.034Z,7.63
2019-04-29T19:33:00.441Z,7.23
2019-04-29T19:35:29.410Z,6.67
2019-04-29T19:37:58.837Z,7.00
2019-04-29T19:40:38.905Z,6.60
2019-04-29T19:43:02.525Z,6.70
2019-04-29T19:45:31.328Z,27.80
2019-04-29T19:48:00.123Z,5.80
2019-04-29T19:50:28.935Z,7.27
2019-04-29T19:53:00.604Z,6.67
2019-04-29T19:55:28.352Z,6.60
2019-04-29T19:57:59.702Z,6.27
2019-04-29T20:00:31.615Z,6.77
2019-04-29T20:02:59.974Z,6.20
2019-04-29T20:05:40.063Z,7.45
2019-04-29T20:08:08.492Z,6.67
2019-04-29T20:10:45.825Z,8.37
2019-04-29T20:13:12.092Z,7.07
2019-04-29T20:15:51.854Z,7.23
2019-04-29T20:18:40.626Z,6.30
2019-04-29T20:21:24.666Z,6.97
2019-04-29T20:23:53.251Z,7.37
2019-04-29T20:26:28.912Z,6.50
2019-04-29T20:29:01.350Z,6.77
2019-04-29T20:31:32.154Z,6.20
2019-04-29T20:34:06.963Z,6.15
2019-04-29T20:36:48.342Z,8.70
2019-04-29T20:39:23.330Z,6.67
2019-04-29T20:41:55.706Z,7.40
2019-04-29T20:44:36.871Z,7.73
2019-04-29T20:47:19.082Z,7.70
2019-04-29T20:49:39.700Z,8.87
2019-04-29T20:52:39.310Z,8.00
2019-04-29T20:55:20.580Z,8.03
2019-04-29T20:57:53.673Z,8.73
2019-04-29T21:00:25.046Z,9.53
2019-04-29T21:02:56.449Z,9.73
2019-04-29T21:05:27.582Z,9.75
2019-04-29T21:08:02.906Z,12.30
2019-04-29T21:10:27.834Z,9.15
2019-04-29T21:13:16.204Z,10.90
2019-04-29T21:15:52.363Z,13.13
2019-04-29T21:18:22.144Z,11.07
2019-04-29T21:20:51.035Z,11.73
2019-04-29T21:23:19.802Z,11.37
2019-04-29T21:25:49.865Z,13.13
2019-04-29T21:28:21.672Z,11.80
2019-04-29T21:30:50.445Z,11.55
2019-04-29T21:33:21.492Z,10.63
2019-04-29T21:36:03.034Z,12.00
2019-04-29T21:38:45.474Z,12.17
2019-04-29T21:41:21.812Z,11.90
2019-04-29T21:43:53.417Z,13.93
2019-04-29T21:46:27.013Z,13.37
2019-04-29T21:48:53.202Z,12.63
2019-04-29T21:51:21.953Z,13.40
2019-04-29T21:53:50.726Z,15.47
2019-04-29T21:56:21.609Z,14.50
2019-04-29T21:58:50.449Z,14.43
2019-04-29T22:03:57.662Z,14.07
2019-04-29T22:06:29.026Z,13.83
2019-04-29T22:09:01.262Z,14.93
2019-04-29T22:11:30.822Z,13.60
2019-04-29T22:13:59.602Z,16.73
2019-04-29T22:16:30.744Z,17.05
2019-04-29T22:19:00.774Z,15.87
2019-04-29T22:21:29.553Z,15.60
2019-04-29T22:23:58.435Z,16.40
2019-04-29T22:26:27.229Z,15.20
2019-04-29T22:29:01.734Z,18.63
2019-04-29T22:31:34.032Z,16.25
2019-04-29T22:34:00.828Z,16.53
2019-04-29T22:36:30.350Z,17.35
2019-04-29T22:38:59.190Z,18.13
2019-04-29T22:41:48.780Z,19.27
2019-04-29T22:44:21.794Z,17.13
2019-04-29T22:46:47.342Z,18.12
2019-04-29T22:49:18.180Z,23.87
2019-04-29T22:51:49.717Z,18.10
2019-04-29T22:54:22.213Z,18.20
2019-04-29T22:56:53.648Z,21.23
2019-04-29T22:59:27.771Z,21.00
2019-04-29T23:01:56.550Z,19.60
2019-04-29T23:04:27.397Z,20.97
2019-04-29T23:06:55.966Z,21.23
2019-04-29T23:09:24.754Z,22.40
2019-04-29T23:11:55.593Z,22.67
2019-04-29T23:14:25.214Z,21.10
2019-04-29T23:16:55.578Z,21.17
2019-04-29T23:19:25.926Z,23.40
2019-04-29T23:22:22.638Z,24.47
2019-04-29T23:24:59.875Z,23.73
2019-04-29T23:27:28.672Z,22.80
2019-04-29T23:30:00.360Z,27.93
2019-04-29T23:32:29.183Z,28.80
2019-04-29T23:35:01.798Z,27.77
2019-04-29T23:37:31.508Z,27.42
2019-04-29T23:40:02.517Z,27.37
2019-04-29T23:42:31.267Z,27.50
2019-04-29T23:45:00.031Z,28.03
2019-04-29T23:47:28.874Z,29.10
2019-04-29T23:49:57.630Z,28.13
2019-04-29T23:52:29.475Z,28.30
2019-04-29T23:54:58.560Z,29.70
2019-04-29T23:57:46.033Z,26.73
